Terminal Aerodrome Forecast
Issued by NWS

Home | Current Version | Previous Version | Text Only | Print | Product List | Glossary Off
Versions: 1 2 3 4 5 6 7 8 9 10 11 12 13 14 15 16 17 18 19 20

000
FTUS43 KMPX 221800 AAA
TAFRWF
TAF AMD
KRWF 221852Z 2219/2318 02004KT P6SM SCT025
      TEMPO 2219/2221 BKN025
     FM230200 03004KT P6SM SCT025 BKN150
     FM230800 08006KT 4SM BR SCT007 BKN025 OVC070
     FM231400 10009KT P6SM VCSH SCT015 OVC050=

USA.gov is the U.S. government's official web portal to all federal, state and local government web resources and services.